sensor_id;sensor_type;location;lat;lon;timestamp;P1;durP1;ratioP1;P2;durP2;ratioP2
53339;SDS011;46212;50.258;19.062;2023-04-15T00:01:49;12.37;;;7.57;;
53339;SDS011;46212;50.258;19.062;2023-04-15T00:04:14;10.73;;;6.57;;
53339;SDS011;46212;50.258;19.062;2023-04-15T00:06:39;10.47;;;6.07;;
53339;SDS011;46212;50.258;19.062;2023-04-15T00:09:05;9.23;;;6.40;;
53339;SDS011;46212;50.258;19.062;2023-04-15T00:11:31;12.63;;;7.87;;
53339;SDS011;46212;50.258;19.062;2023-04-15T00:13:56;11.00;;;7.03;;
53339;SDS011;46212;50.258;19.062;2023-04-15T00:16:22;11.80;;;7.68;;
53339;SDS011;46212;50.258;19.062;2023-04-15T00:18:48;14.13;;;8.47;;
53339;SDS011;46212;50.258;19.062;2023-04-15T00:21:13;15.53;;;9.33;;
53339;SDS011;46212;50.258;19.062;2023-04-15T00:23:38;13.73;;;8.27;;
53339;SDS011;46212;50.258;19.062;2023-04-15T00:26:04;12.87;;;8.63;;
53339;SDS011;46212;50.258;19.062;2023-04-15T00:28:29;12.30;;;6.33;;
53339;SDS011;46212;50.258;19.062;2023-04-15T00:30:55;10.67;;;5.87;;
53339;SDS011;46212;50.258;19.062;2023-04-15T00:33:20;11.43;;;6.30;;
53339;SDS011;46212;50.258;19.062;2023-04-15T00:35:46;8.13;;;5.17;;
53339;SDS011;46212;50.258;19.062;2023-04-15T00:38:11;12.17;;;5.43;;
53339;SDS011;46212;50.258;19.062;2023-04-15T00:40:37;9.27;;;4.70;;
53339;SDS011;46212;50.258;19.062;2023-04-15T00:43:02;10.77;;;4.20;;
53339;SDS011;46212;50.258;19.062;2023-04-15T00:45:28;7.00;;;4.07;;
53339;SDS011;46212;50.258;19.062;2023-04-15T00:47:54;7.03;;;4.40;;
53339;SDS011;46212;50.258;19.062;2023-04-15T00:50:19;8.77;;;3.70;;
53339;SDS011;46212;50.258;19.062;2023-04-15T00:52:45;8.10;;;4.37;;
53339;SDS011;46212;50.258;19.062;2023-04-15T00:55:10;6.97;;;4.40;;
53339;SDS011;46212;50.258;19.062;2023-04-15T00:57:36;7.03;;;4.37;;
53339;SDS011;46212;50.258;19.062;2023-04-15T01:00:03;7.80;;;4.68;;
53339;SDS011;46212;50.258;19.062;2023-04-15T01:02:32;10.38;;;4.88;;
53339;SDS011;46212;50.258;19.062;2023-04-15T01:04:58;6.00;;;3.58;;
53339;SDS011;46212;50.258;19.062;2023-04-15T01:07:24;9.10;;;5.57;;
53339;SDS011;46212;50.258;19.062;2023-04-15T01:09:49;9.83;;;5.30;;
53339;SDS011;46212;50.258;19.062;2023-04-15T01:12:15;11.93;;;6.07;;
53339;SDS011;46212;50.258;19.062;2023-04-15T01:14:41;10.80;;;6.40;;
53339;SDS011;46212;50.258;19.062;2023-04-15T01:17:06;12.57;;;5.97;;
53339;SDS011;46212;50.258;19.062;2023-04-15T01:19:32;12.93;;;6.50;;
53339;SDS011;46212;50.258;19.062;2023-04-15T01:21:58;12.87;;;6.00;;
53339;SDS011;46212;50.258;19.062;2023-04-15T01:24:24;11.90;;;6.47;;
53339;SDS011;46212;50.258;19.062;2023-04-15T01:26:52;12.85;;;6.50;;
53339;SDS011;46212;50.258;19.062;2023-04-15T01:29:18;10.40;;;5.53;;
53339;SDS011;46212;50.258;19.062;2023-04-15T01:31:53;11.93;;;6.07;;
53339;SDS011;46212;50.258;19.062;2023-04-15T01:34:20;12.00;;;5.78;;
53339;SDS011;46212;50.258;19.062;2023-04-15T01:36:45;17.30;;;10.20;;
53339;SDS011;46212;50.258;19.062;2023-04-15T01:39:11;14.93;;;9.70;;
53339;SDS011;46212;50.258;19.062;2023-04-15T01:41:37;14.47;;;9.73;;
53339;SDS011;46212;50.258;19.062;2023-04-15T01:44:03;15.10;;;8.02;;
53339;SDS011;46212;50.258;19.062;2023-04-15T01:46:29;12.37;;;7.40;;
53339;SDS011;46212;50.258;19.062;2023-04-15T01:48:54;13.87;;;8.77;;
53339;SDS011;46212;50.258;19.062;2023-04-15T01:51:20;12.17;;;8.20;;
53339;SDS011;46212;50.258;19.062;2023-04-15T01:53:46;15.63;;;7.80;;
53339;SDS011;46212;50.258;19.062;2023-04-15T01:56:11;11.63;;;6.90;;
53339;SDS011;46212;50.258;19.062;2023-04-15T01:58:37;13.53;;;7.03;;
53339;SDS011;46212;50.258;19.062;2023-04-15T02:01:02;11.87;;;6.00;;
53339;SDS011;46212;50.258;19.062;2023-04-15T02:03:28;9.52;;;6.40;;
53339;SDS011;46212;50.258;19.062;2023-04-15T02:05:54;15.80;;;6.47;;
53339;SDS011;46212;50.258;19.062;2023-04-15T02:08:19;9.20;;;5.73;;
53339;SDS011;46212;50.258;19.062;2023-04-15T02:10:45;10.97;;;6.83;;
53339;SDS011;46212;50.258;19.062;2023-04-15T02:13:10;9.60;;;5.87;;
53339;SDS011;46212;50.258;19.062;2023-04-15T02:15:36;8.07;;;4.87;;
53339;SDS011;46212;50.258;19.062;2023-04-15T02:18:01;10.20;;;4.63;;
53339;SDS011;46212;50.258;19.062;2023-04-15T02:20:27;7.50;;;4.07;;
53339;SDS011;46212;50.258;19.062;2023-04-15T02:22:54;6.65;;;3.50;;
53339;SDS011;46212;50.258;19.062;2023-04-15T02:25:20;4.97;;;2.85;;
53339;SDS011;46212;50.258;19.062;2023-04-15T02:27:46;4.27;;;2.67;;
53339;SDS011;46212;50.258;19.062;2023-04-15T02:30:11;5.47;;;2.97;;
53339;SDS011;46212;50.258;19.062;2023-04-15T02:32:37;9.33;;;5.37;;
53339;SDS011;46212;50.258;19.062;2023-04-15T02:35:04;14.50;;;7.95;;
53339;SDS011;46212;50.258;19.062;2023-04-15T02:37:31;13.73;;;9.55;;
53339;SDS011;46212;50.258;19.062;2023-04-15T02:40:01;13.80;;;9.30;;
53339;SDS011;46212;50.258;19.062;2023-04-15T02:42:26;9.77;;;5.33;;
53339;SDS011;46212;50.258;19.062;2023-04-15T02:44:54;8.98;;;5.22;;
53339;SDS011;46212;50.258;19.062;2023-04-15T02:47:20;6.77;;;3.57;;
53339;SDS011;46212;50.258;19.062;2023-04-15T02:49:45;7.40;;;4.37;;
53339;SDS011;46212;50.258;19.062;2023-04-15T02:52:11;7.57;;;4.03;;
53339;SDS011;46212;50.258;19.062;2023-04-15T02:54:36;7.00;;;3.77;;
53339;SDS011;46212;50.258;19.062;2023-04-15T02:57:01;5.27;;;3.17;;
53339;SDS011;46212;50.258;19.062;2023-04-15T02:59:30;6.45;;;3.63;;
53339;SDS011;46212;50.258;19.062;2023-04-15T03:07:31;7.82;;;3.47;;
53339;SDS011;46212;50.258;19.062;2023-04-15T03:09:56;8.23;;;3.53;;
53339;SDS011;46212;50.258;19.062;2023-04-15T03:12:22;6.60;;;3.30;;
53339;SDS011;46212;50.258;19.062;2023-04-15T03:14:47;4.60;;;2.90;;
53339;SDS011;46212;50.258;19.062;2023-04-15T03:17:13;5.83;;;2.93;;
53339;SDS011;46212;50.258;19.062;2023-04-15T03:19:38;5.80;;;2.37;;
53339;SDS011;46212;50.258;19.062;2023-04-15T03:22:03;5.77;;;2.67;;
53339;SDS011;46212;50.258;19.062;2023-04-15T03:24:29;4.63;;;2.23;;
53339;SDS011;46212;50.258;19.062;2023-04-15T03:26:55;7.50;;;2.23;;
53339;SDS011;46212;50.258;19.062;2023-04-15T03:29:22;7.25;;;2.38;;
53339;SDS011;46212;50.258;19.062;2023-04-15T03:31:47;6.60;;;2.57;;
53339;SDS011;46212;50.258;19.062;2023-04-15T03:34:13;2.97;;;1.87;;
53339;SDS011;46212;50.258;19.062;2023-04-15T03:36:38;4.97;;;2.37;;
53339;SDS011;46212;50.258;19.062;2023-04-15T03:39:04;3.77;;;1.97;;
53339;SDS011;46212;50.258;19.062;2023-04-15T03:41:29;5.97;;;2.73;;
53339;SDS011;46212;50.258;19.062;2023-04-15T03:43:55;5.43;;;3.87;;
53339;SDS011;46212;50.258;19.062;2023-04-15T03:46:20;10.57;;;4.23;;
53339;SDS011;46212;50.258;19.062;2023-04-15T03:48:46;18.87;;;8.17;;
53339;SDS011;46212;50.258;19.062;2023-04-15T03:51:12;12.87;;;5.50;;
53339;SDS011;46212;50.258;19.062;2023-04-15T03:53:37;13.67;;;4.63;;
53339;SDS011;46212;50.258;19.062;2023-04-15T03:56:03;7.23;;;3.80;;
53339;SDS011;46212;50.258;19.062;2023-04-15T03:58:28;11.00;;;4.17;;
53339;SDS011;46212;50.258;19.062;2023-04-15T04:00:53;11.17;;;4.53;;
53339;SDS011;46212;50.258;19.062;2023-04-15T04:03:19;11.67;;;4.77;;
53339;SDS011;46212;50.258;19.062;2023-04-15T04:05:45;9.37;;;3.77;;
53339;SDS011;46212;50.258;19.062;2023-04-15T04:08:10;8.63;;;3.47;;
53339;SDS011;46212;50.258;19.062;2023-04-15T04:10:38;12.55;;;5.07;;
53339;SDS011;46212;50.258;19.062;2023-04-15T04:13:03;10.03;;;4.40;;
53339;SDS011;46212;50.258;19.062;2023-04-15T04:15:29;6.73;;;3.33;;
53339;SDS011;46212;50.258;19.062;2023-04-15T04:17:54;11.40;;;3.50;;
53339;SDS011;46212;50.258;19.062;2023-04-15T04:20:20;7.03;;;3.20;;
53339;SDS011;46212;50.258;19.062;2023-04-15T04:22:45;6.80;;;3.93;;
53339;SDS011;46212;50.258;19.062;2023-04-15T04:25:11;7.07;;;3.37;;
53339;SDS011;46212;50.258;19.062;2023-04-15T04:27:36;8.97;;;4.80;;
53339;SDS011;46212;50.258;19.062;2023-04-15T04:30:02;7.93;;;3.30;;
53339;SDS011;46212;50.258;19.062;2023-04-15T04:32:28;9.40;;;4.60;;
53339;SDS011;46212;50.258;19.062;2023-04-15T04:34:53;10.47;;;4.57;;
53339;SDS011;46212;50.258;19.062;2023-04-15T04:37:18;12.70;;;6.17;;
53339;SDS011;46212;50.258;19.062;2023-04-15T04:39:44;14.00;;;6.10;;
53339;SDS011;46212;50.258;19.062;2023-04-15T04:42:09;8.57;;;5.00;;
53339;SDS011;46212;50.258;19.062;2023-04-15T04:44:35;6.97;;;4.20;;
53339;SDS011;46212;50.258;19.062;2023-04-15T04:47:00;9.33;;;4.67;;
53339;SDS011;46212;50.258;19.062;2023-04-15T04:49:25;9.43;;;4.10;;
53339;SDS011;46212;50.258;19.062;2023-04-15T04:51:51;7.97;;;4.07;;
53339;SDS011;46212;50.258;19.062;2023-04-15T04:54:16;8.87;;;4.00;;
53339;SDS011;46212;50.258;19.062;2023-04-15T04:56:42;11.03;;;4.43;;
53339;SDS011;46212;50.258;19.062;2023-04-15T04:59:07;10.70;;;4.90;;
53339;SDS011;46212;50.258;19.062;2023-04-15T05:01:33;10.43;;;3.80;;
53339;SDS011;46212;50.258;19.062;2023-04-15T05:03:59;9.40;;;3.60;;
53339;SDS011;46212;50.258;19.062;2023-04-15T05:06:24;8.50;;;4.60;;
53339;SDS011;46212;50.258;19.062;2023-04-15T05:08:50;7.03;;;3.93;;
53339;SDS011;46212;50.258;19.062;2023-04-15T05:11:15;9.53;;;5.00;;
53339;SDS011;46212;50.258;19.062;2023-04-15T05:13:41;10.47;;;5.37;;
53339;SDS011;46212;50.258;19.062;2023-04-15T05:16:06;10.47;;;5.00;;
53339;SDS011;46212;50.258;19.062;2023-04-15T05:18:32;10.60;;;5.40;;
53339;SDS011;46212;50.258;19.062;2023-04-15T05:20:58;12.07;;;5.20;;
53339;SDS011;46212;50.258;19.062;2023-04-15T05:23:24;7.70;;;4.40;;
53339;SDS011;46212;50.258;19.062;2023-04-15T05:25:49;10.97;;;5.47;;
53339;SDS011;46212;50.258;19.062;2023-04-15T05:28:14;15.23;;;4.67;;
53339;SDS011;46212;50.258;19.062;2023-04-15T05:30:40;11.63;;;4.90;;
53339;SDS011;46212;50.258;19.062;2023-04-15T05:33:06;9.73;;;5.07;;
53339;SDS011;46212;50.258;19.062;2023-04-15T05:35:31;12.00;;;5.37;;
53339;SDS011;46212;50.258;19.062;2023-04-15T05:37:57;11.33;;;5.27;;
53339;SDS011;46212;50.258;19.062;2023-04-15T05:40:22;9.90;;;4.73;;
53339;SDS011;46212;50.258;19.062;2023-04-15T05:42:48;11.73;;;4.13;;
53339;SDS011;46212;50.258;19.062;2023-04-15T05:45:13;11.70;;;4.77;;
53339;SDS011;46212;50.258;19.062;2023-04-15T05:47:39;11.97;;;6.70;;
53339;SDS011;46212;50.258;19.062;2023-04-15T05:50:04;13.70;;;6.17;;
53339;SDS011;46212;50.258;19.062;2023-04-15T05:52:30;12.15;;;5.22;;
53339;SDS011;46212;50.258;19.062;2023-04-15T05:54:56;8.90;;;4.63;;
53339;SDS011;46212;50.258;19.062;2023-04-15T05:57:21;11.70;;;5.67;;
53339;SDS011;46212;50.258;19.062;2023-04-15T05:59:47;11.30;;;6.47;;
53339;SDS011;46212;50.258;19.062;2023-04-15T06:02:13;12.33;;;5.80;;
53339;SDS011;46212;50.258;19.062;2023-04-15T06:04:38;12.40;;;6.40;;
53339;SDS011;46212;50.258;19.062;2023-04-15T06:07:04;12.40;;;6.43;;
53339;SDS011;46212;50.258;19.062;2023-04-15T06:09:29;12.03;;;6.80;;
53339;SDS011;46212;50.258;19.062;2023-04-15T06:11:55;13.23;;;6.10;;
53339;SDS011;46212;50.258;19.062;2023-04-15T06:14:21;13.35;;;6.97;;
53339;SDS011;46212;50.258;19.062;2023-04-15T06:16:47;14.83;;;6.60;;
53339;SDS011;46212;50.258;19.062;2023-04-15T06:19:12;12.77;;;7.93;;
53339;SDS011;46212;50.258;19.062;2023-04-15T06:21:38;12.50;;;5.87;;
53339;SDS011;46212;50.258;19.062;2023-04-15T06:24:04;13.90;;;7.30;;
53339;SDS011;46212;50.258;19.062;2023-04-15T06:26:29;25.10;;;11.37;;
53339;SDS011;46212;50.258;19.062;2023-04-15T06:28:55;18.03;;;7.90;;
53339;SDS011;46212;50.258;19.062;2023-04-15T06:31:21;12.07;;;6.17;;
53339;SDS011;46212;50.258;19.062;2023-04-15T06:33:46;13.27;;;7.10;;
53339;SDS011;46212;50.258;19.062;2023-04-15T06:36:12;23.37;;;10.83;;
53339;SDS011;46212;50.258;19.062;2023-04-15T06:38:37;12.80;;;6.43;;
53339;SDS011;46212;50.258;19.062;2023-04-15T06:41:03;21.87;;;6.43;;
53339;SDS011;46212;50.258;19.062;2023-04-15T06:43:28;13.70;;;7.20;;
53339;SDS011;46212;50.258;19.062;2023-04-15T06:45:54;12.53;;;6.17;;
53339;SDS011;46212;50.258;19.062;2023-04-15T06:48:20;11.20;;;5.90;;
53339;SDS011;46212;50.258;19.062;2023-04-15T06:50:46;14.45;;;7.18;;
53339;SDS011;46212;50.258;19.062;2023-04-15T06:53:13;16.98;;;7.35;;
53339;SDS011;46212;50.258;19.062;2023-04-15T06:55:38;13.30;;;6.07;;
53339;SDS011;46212;50.258;19.062;2023-04-15T06:58:04;12.57;;;7.60;;
53339;SDS011;46212;50.258;19.062;2023-04-15T07:00:30;13.07;;;7.07;;
53339;SDS011;46212;50.258;19.062;2023-04-15T07:02:57;13.32;;;6.05;;
53339;SDS011;46212;50.258;19.062;2023-04-15T07:05:23;15.53;;;7.17;;
53339;SDS011;46212;50.258;19.062;2023-04-15T07:07:49;11.55;;;6.30;;
53339;SDS011;46212;50.258;19.062;2023-04-15T07:10:15;16.37;;;7.23;;
53339;SDS011;46212;50.258;19.062;2023-04-15T07:12:40;11.93;;;5.50;;
53339;SDS011;46212;50.258;19.062;2023-04-15T07:15:06;11.57;;;5.97;;
53339;SDS011;46212;50.258;19.062;2023-04-15T07:17:32;11.27;;;5.90;;
53339;SDS011;46212;50.258;19.062;2023-04-15T07:19:57;14.60;;;7.10;;
53339;SDS011;46212;50.258;19.062;2023-04-15T07:22:22;13.13;;;5.73;;
53339;SDS011;46212;50.258;19.062;2023-04-15T07:24:48;13.80;;;6.80;;
53339;SDS011;46212;50.258;19.062;2023-04-15T07:27:13;12.63;;;5.53;;
53339;SDS011;46212;50.258;19.062;2023-04-15T07:29:39;12.17;;;6.47;;
53339;SDS011;46212;50.258;19.062;2023-04-15T07:32:05;17.13;;;6.60;;
53339;SDS011;46212;50.258;19.062;2023-04-15T07:34:31;13.60;;;6.33;;
53339;SDS011;46212;50.258;19.062;2023-04-15T07:36:56;9.10;;;4.77;;
53339;SDS011;46212;50.258;19.062;2023-04-15T07:39:22;11.83;;;6.10;;
53339;SDS011;46212;50.258;19.062;2023-04-15T07:41:47;9.17;;;5.43;;
53339;SDS011;46212;50.258;19.062;2023-04-15T07:44:13;10.80;;;4.97;;
53339;SDS011;46212;50.258;19.062;2023-04-15T07:46:38;16.00;;;4.87;;
53339;SDS011;46212;50.258;19.062;2023-04-15T07:49:04;9.07;;;4.73;;
53339;SDS011;46212;50.258;19.062;2023-04-15T07:51:29;8.47;;;3.73;;
53339;SDS011;46212;50.258;19.062;2023-04-15T07:53:56;7.57;;;3.88;;
53339;SDS011;46212;50.258;19.062;2023-04-15T07:56:22;12.37;;;6.03;;
53339;SDS011;46212;50.258;19.062;2023-04-15T07:58:47;28.00;;;16.57;;
53339;SDS011;46212;50.258;19.062;2023-04-15T08:01:12;18.10;;;10.10;;
53339;SDS011;46212;50.258;19.062;2023-04-15T08:03:38;6.63;;;3.60;;
53339;SDS011;46212;50.258;19.062;2023-04-15T08:06:03;7.83;;;3.70;;
53339;SDS011;46212;50.258;19.062;2023-04-15T08:08:29;7.90;;;3.87;;
53339;SDS011;46212;50.258;19.062;2023-04-15T08:10:55;7.57;;;4.13;;
53339;SDS011;46212;50.258;19.062;2023-04-15T08:13:21;9.02;;;3.97;;
53339;SDS011;46212;50.258;19.062;2023-04-15T08:15:52;6.43;;;2.70;;
53339;SDS011;46212;50.258;19.062;2023-04-15T08:18:43;11.43;;;3.78;;
53339;SDS011;46212;50.258;19.062;2023-04-15T08:21:09;8.13;;;3.70;;
53339;SDS011;46212;50.258;19.062;2023-04-15T08:23:35;10.60;;;3.92;;
53339;SDS011;46212;50.258;19.062;2023-04-15T08:26:00;7.60;;;4.07;;
53339;SDS011;46212;50.258;19.062;2023-04-15T08:28:26;12.13;;;4.57;;
53339;SDS011;46212;50.258;19.062;2023-04-15T08:30:51;10.17;;;3.17;;
53339;SDS011;46212;50.258;19.062;2023-04-15T08:33:17;6.03;;;2.80;;
53339;SDS011;46212;50.258;19.062;2023-04-15T08:35:43;8.97;;;4.23;;
53339;SDS011;46212;50.258;19.062;2023-04-15T08:38:08;21.90;;;11.77;;
53339;SDS011;46212;50.258;19.062;2023-04-15T08:40:43;22.13;;;12.63;;
53339;SDS011;46212;50.258;19.062;2023-04-15T08:43:11;4.72;;;3.00;;
53339;SDS011;46212;50.258;19.062;2023-04-15T08:45:39;4.88;;;2.38;;
53339;SDS011;46212;50.258;19.062;2023-04-15T08:48:05;6.20;;;2.67;;
53339;SDS011;46212;50.258;19.062;2023-04-15T08:50:33;5.90;;;2.47;;
53339;SDS011;46212;50.258;19.062;2023-04-15T08:52:59;4.70;;;2.50;;
53339;SDS011;46212;50.258;19.062;2023-04-15T08:55:29;6.60;;;3.17;;
53339;SDS011;46212;50.258;19.062;2023-04-15T08:58:00;10.82;;;5.88;;
53339;SDS011;46212;50.258;19.062;2023-04-15T09:02:53;6.60;;;2.65;;
53339;SDS011;46212;50.258;19.062;2023-04-15T09:05:20;4.25;;;2.72;;
53339;SDS011;46212;50.258;19.062;2023-04-15T09:07:47;6.30;;;2.42;;
53339;SDS011;46212;50.258;19.062;2023-04-15T09:10:12;3.80;;;2.10;;
53339;SDS011;46212;50.258;19.062;2023-04-15T09:12:38;7.37;;;2.43;;
53339;SDS011;46212;50.258;19.062;2023-04-15T09:15:03;2.43;;;1.33;;
53339;SDS011;46212;50.258;19.062;2023-04-15T09:17:29;1.83;;;1.02;;
53339;SDS011;46212;50.258;19.062;2023-04-15T09:20:10;2.35;;;1.23;;
53339;SDS011;46212;50.258;19.062;2023-04-15T09:22:40;5.97;;;1.98;;
53339;SDS011;46212;50.258;19.062;2023-04-15T09:28:22;2.90;;;1.23;;
53339;SDS011;46212;50.258;19.062;2023-04-15T09:30:38;2.85;;;1.17;;
53339;SDS011;46212;50.258;19.062;2023-04-15T09:33:07;2.05;;;1.17;;
53339;SDS011;46212;50.258;19.062;2023-04-15T09:35:34;2.67;;;1.40;;
53339;SDS011;46212;50.258;19.062;2023-04-15T09:38:04;1.48;;;1.10;;
53339;SDS011;46212;50.258;19.062;2023-04-15T09:40:38;2.92;;;1.30;;
53339;SDS011;46212;50.258;19.062;2023-04-15T09:43:06;4.95;;;1.60;;
53339;SDS011;46212;50.258;19.062;2023-04-15T09:45:33;5.75;;;1.88;;
53339;SDS011;46212;50.258;19.062;2023-04-15T09:48:21;2.13;;;1.23;;
53339;SDS011;46212;50.258;19.062;2023-04-15T09:50:49;6.40;;;1.40;;
53339;SDS011;46212;50.258;19.062;2023-04-15T09:53:18;3.53;;;1.27;;
53339;SDS011;46212;50.258;19.062;2023-04-15T09:55:45;2.28;;;1.08;;
53339;SDS011;46212;50.258;19.062;2023-04-15T09:58:18;2.78;;;1.60;;
53339;SDS011;46212;50.258;19.062;2023-04-15T10:00:46;3.65;;;1.45;;
53339;SDS011;46212;50.258;19.062;2023-04-15T10:03:14;4.15;;;1.30;;
53339;SDS011;46212;50.258;19.062;2023-04-15T10:05:44;2.20;;;1.05;;
53339;SDS011;46212;50.258;19.062;2023-04-15T10:08:12;2.58;;;1.35;;
53339;SDS011;46212;50.258;19.062;2023-04-15T10:10:37;2.90;;;1.50;;
53339;SDS011;46212;50.258;19.062;2023-04-15T10:13:03;2.23;;;1.27;;
53339;SDS011;46212;50.258;19.062;2023-04-15T10:15:30;2.25;;;1.00;;
53339;SDS011;46212;50.258;19.062;2023-04-15T10:17:57;2.60;;;1.67;;
53339;SDS011;46212;50.258;19.062;2023-04-15T10:20:25;1.98;;;1.33;;
53339;SDS011;46212;50.258;19.062;2023-04-15T10:22:53;5.22;;;1.63;;
53339;SDS011;46212;50.258;19.062;2023-04-15T10:25:19;1.77;;;1.38;;
53339;SDS011;46212;50.258;19.062;2023-04-15T10:27:45;3.08;;;1.70;;
53339;SDS011;46212;50.258;19.062;2023-04-15T10:30:12;2.45;;;1.35;;
53339;SDS011;46212;50.258;19.062;2023-04-15T10:35:05;3.30;;;2.00;;
53339;SDS011;46212;50.258;19.062;2023-04-15T10:37:36;7.60;;;3.75;;
53339;SDS011;46212;50.258;19.062;2023-04-15T10:42:52;3.28;;;1.20;;
53339;SDS011;46212;50.258;19.062;2023-04-15T10:45:19;2.40;;;1.65;;
53339;SDS011;46212;50.258;19.062;2023-04-15T10:47:44;2.83;;;1.20;;
53339;SDS011;46212;50.258;19.062;2023-04-15T10:50:10;1.93;;;1.27;;
53339;SDS011;46212;50.258;19.062;2023-04-15T10:52:36;3.80;;;1.57;;
53339;SDS011;46212;50.258;19.062;2023-04-15T10:55:12;3.40;;;1.35;;
53339;SDS011;46212;50.258;19.062;2023-04-15T10:57:42;4.03;;;1.60;;
53339;SDS011;46212;50.258;19.062;2023-04-15T11:00:09;2.72;;;1.30;;
53339;SDS011;46212;50.258;19.062;2023-04-15T11:05:17;4.38;;;1.60;;
53339;SDS011;46212;50.258;19.062;2023-04-15T11:07:54;4.00;;;2.05;;
53339;SDS011;46212;50.258;19.062;2023-04-15T11:17:59;5.97;;;2.00;;
53339;SDS011;46212;50.258;19.062;2023-04-15T11:20:24;6.05;;;2.47;;
53339;SDS011;46212;50.258;19.062;2023-04-15T11:22:51;3.25;;;1.70;;
53339;SDS011;46212;50.258;19.062;2023-04-15T11:27:50;4.50;;;2.10;;
53339;SDS011;46212;50.258;19.062;2023-04-15T11:30:18;3.53;;;2.28;;
53339;SDS011;46212;50.258;19.062;2023-04-15T11:32:46;2.85;;;1.70;;
53339;SDS011;46212;50.258;19.062;2023-04-15T11:35:12;2.85;;;1.92;;
53339;SDS011;46212;50.258;19.062;2023-04-15T11:37:37;4.67;;;2.40;;
53339;SDS011;46212;50.258;19.062;2023-04-15T11:40:03;3.83;;;2.80;;
53339;SDS011;46212;50.258;19.062;2023-04-15T11:42:28;4.80;;;1.80;;
53339;SDS011;46212;50.258;19.062;2023-04-15T11:45:09;5.23;;;2.67;;
53339;SDS011;46212;50.258;19.062;2023-04-15T11:47:40;11.73;;;6.10;;
53339;SDS011;46212;50.258;19.062;2023-04-15T11:50:16;6.22;;;2.45;;
53339;SDS011;46212;50.258;19.062;2023-04-15T11:52:53;3.63;;;1.95;;
53339;SDS011;46212;50.258;19.062;2023-04-15T11:55:21;6.85;;;2.42;;
53339;SDS011;46212;50.258;19.062;2023-04-15T11:57:49;5.57;;;2.25;;
53339;SDS011;46212;50.258;19.062;2023-04-15T12:00:15;5.70;;;2.42;;
53339;SDS011;46212;50.258;19.062;2023-04-15T12:02:41;4.15;;;1.92;;
53339;SDS011;46212;50.258;19.062;2023-04-15T12:05:07;4.10;;;2.15;;
53339;SDS011;46212;50.258;19.062;2023-04-15T12:07:56;7.63;;;2.65;;
53339;SDS011;46212;50.258;19.062;2023-04-15T12:10:23;7.10;;;2.63;;
53339;SDS011;46212;50.258;19.062;2023-04-15T12:12:51;7.63;;;3.47;;
53339;SDS011;46212;50.258;19.062;2023-04-15T12:15:20;10.00;;;5.97;;
53339;SDS011;46212;50.258;19.062;2023-04-15T12:17:47;6.15;;;2.88;;
53339;SDS011;46212;50.258;19.062;2023-04-15T12:20:12;4.70;;;2.07;;
53339;SDS011;46212;50.258;19.062;2023-04-15T12:22:38;5.90;;;2.60;;
53339;SDS011;46212;50.258;19.062;2023-04-15T12:25:03;5.70;;;2.00;;
53339;SDS011;46212;50.258;19.062;2023-04-15T12:27:30;3.40;;;1.93;;
53339;SDS011;46212;50.258;19.062;2023-04-15T12:30:02;4.55;;;2.22;;
53339;SDS011;46212;50.258;19.062;2023-04-15T12:32:29;4.72;;;1.83;;
53339;SDS011;46212;50.258;19.062;2023-04-15T12:34:58;4.93;;;2.78;;
53339;SDS011;46212;50.258;19.062;2023-04-15T12:37:24;5.37;;;2.47;;
53339;SDS011;46212;50.258;19.062;2023-04-15T12:39:50;4.43;;;1.98;;
53339;SDS011;46212;50.258;19.062;2023-04-15T12:42:16;3.95;;;1.98;;
53339;SDS011;46212;50.258;19.062;2023-04-15T12:44:42;5.30;;;1.90;;
53339;SDS011;46212;50.258;19.062;2023-04-15T12:47:08;6.60;;;2.40;;
53339;SDS011;46212;50.258;19.062;2023-04-15T12:52:06;5.10;;;2.60;;
53339;SDS011;46212;50.258;19.062;2023-04-15T12:54:31;5.40;;;2.23;;
53339;SDS011;46212;50.258;19.062;2023-04-15T12:56:57;2.93;;;1.80;;
53339;SDS011;46212;50.258;19.062;2023-04-15T13:01:53;3.28;;;2.25;;
53339;SDS011;46212;50.258;19.062;2023-04-15T13:04:19;4.17;;;2.30;;
53339;SDS011;46212;50.258;19.062;2023-04-15T13:06:45;4.80;;;2.10;;
53339;SDS011;46212;50.258;19.062;2023-04-15T13:09:11;4.78;;;1.77;;
53339;SDS011;46212;50.258;19.062;2023-04-15T13:11:36;3.50;;;1.83;;
53339;SDS011;46212;50.258;19.062;2023-04-15T13:14:02;5.70;;;2.07;;
53339;SDS011;46212;50.258;19.062;2023-04-15T13:16:29;6.25;;;2.10;;
53339;SDS011;46212;50.258;19.062;2023-04-15T13:18:56;3.08;;;1.65;;
53339;SDS011;46212;50.258;19.062;2023-04-15T13:21:22;5.72;;;2.38;;
53339;SDS011;46212;50.258;19.062;2023-04-15T13:23:47;13.37;;;7.30;;
53339;SDS011;46212;50.258;19.062;2023-04-15T13:26:13;3.25;;;1.92;;
53339;SDS011;46212;50.258;19.062;2023-04-15T13:28:39;3.57;;;2.17;;
53339;SDS011;46212;50.258;19.062;2023-04-15T13:31:04;3.80;;;1.98;;
53339;SDS011;46212;50.258;19.062;2023-04-15T13:33:30;6.07;;;1.97;;
53339;SDS011;46212;50.258;19.062;2023-04-15T13:35:56;4.80;;;2.20;;
53339;SDS011;46212;50.258;19.062;2023-04-15T13:38:23;5.68;;;2.40;;
53339;SDS011;46212;50.258;19.062;2023-04-15T13:40:49;2.78;;;1.80;;
53339;SDS011;46212;50.258;19.062;2023-04-15T13:43:15;3.50;;;2.10;;
53339;SDS011;46212;50.258;19.062;2023-04-15T13:45:41;2.65;;;1.80;;
53339;SDS011;46212;50.258;19.062;2023-04-15T13:48:07;3.60;;;2.05;;
53339;SDS011;46212;50.258;19.062;2023-04-15T13:50:32;2.27;;;1.80;;
53339;SDS011;46212;50.258;19.062;2023-04-15T13:52:57;3.00;;;2.03;;
53339;SDS011;46212;50.258;19.062;2023-04-15T13:55:23;3.20;;;2.17;;
53339;SDS011;46212;50.258;19.062;2023-04-15T13:57:48;5.83;;;2.60;;
53339;SDS011;46212;50.258;19.062;2023-04-15T14:00:14;4.53;;;1.92;;
53339;SDS011;46212;50.258;19.062;2023-04-15T14:02:40;3.10;;;1.65;;
53339;SDS011;46212;50.258;19.062;2023-04-15T14:05:06;4.87;;;1.67;;
53339;SDS011;46212;50.258;19.062;2023-04-15T14:07:32;2.83;;;1.65;;
53339;SDS011;46212;50.258;19.062;2023-04-15T14:09:57;9.00;;;4.10;;
53339;SDS011;46212;50.258;19.062;2023-04-15T14:12:23;2.58;;;1.60;;
53339;SDS011;46212;50.258;19.062;2023-04-15T14:14:49;4.63;;;2.10;;
53339;SDS011;46212;50.258;19.062;2023-04-15T14:17:14;3.13;;;1.83;;
53339;SDS011;46212;50.258;19.062;2023-04-15T14:19:40;6.43;;;2.57;;
53339;SDS011;46212;50.258;19.062;2023-04-15T14:22:05;4.63;;;2.33;;
53339;SDS011;46212;50.258;19.062;2023-04-15T14:24:31;2.33;;;1.83;;
53339;SDS011;46212;50.258;19.062;2023-04-15T14:26:57;3.57;;;1.70;;
53339;SDS011;46212;50.258;19.062;2023-04-15T14:29:22;2.75;;;1.67;;
53339;SDS011;46212;50.258;19.062;2023-04-15T14:31:48;2.33;;;1.80;;
53339;SDS011;46212;50.258;19.062;2023-04-15T14:34:14;5.18;;;2.13;;
53339;SDS011;46212;50.258;19.062;2023-04-15T14:36:40;3.30;;;1.80;;
53339;SDS011;46212;50.258;19.062;2023-04-15T14:39:06;2.92;;;1.60;;
53339;SDS011;46212;50.258;19.062;2023-04-15T14:41:32;2.25;;;1.77;;
53339;SDS011;46212;50.258;19.062;2023-04-15T14:43:58;5.00;;;2.88;;
53339;SDS011;46212;50.258;19.062;2023-04-15T14:46:24;3.25;;;1.77;;
53339;SDS011;46212;50.258;19.062;2023-04-15T14:48:50;2.55;;;1.63;;
53339;SDS011;46212;50.258;19.062;2023-04-15T14:51:16;1.88;;;1.40;;
53339;SDS011;46212;50.258;19.062;2023-04-15T14:53:42;3.67;;;1.60;;
53339;SDS011;46212;50.258;19.062;2023-04-15T14:56:08;3.70;;;2.05;;
53339;SDS011;46212;50.258;19.062;2023-04-15T14:58:33;18.25;;;14.57;;